sensor_id;sensor_type;location;lat;lon;timestamp;pressure;altitude;pressure_sealevel;temperature;humidity
7109;BME280;29079;41.930;25.558;2023-01-30T00:00:18;100028.81;;;1.79;100.00
7109;BME280;29079;41.930;25.558;2023-01-30T00:02:51;100029.47;;;1.84;100.00
7109;BME280;29079;41.930;25.558;2023-01-30T00:05:25;100026.56;;;1.90;100.00
7109;BME280;29079;41.930;25.558;2023-01-30T00:07:58;100026.19;;;1.79;100.00
7109;BME280;29079;41.930;25.558;2023-01-30T00:10:33;100024.25;;;1.83;100.00
7109;BME280;29079;41.930;25.558;2023-01-30T00:13:08;100026.44;;;1.94;100.00
7109;BME280;29079;41.930;25.558;2023-01-30T00:15:42;100029.75;;;1.97;100.00
7109;BME280;29079;41.930;25.558;2023-01-30T00:18:16;100027.19;;;1.96;100.00
7109;BME280;29079;41.930;25.558;2023-01-30T00:20:54;100018.47;;;1.95;100.00
7109;BME280;29079;41.930;25.558;2023-01-30T00:23:29;100031.41;;;2.00;100.00
7109;BME280;29079;41.930;25.558;2023-01-30T00:26:05;100030.28;;;2.05;100.00
7109;BME280;29079;41.930;25.558;2023-01-30T00:28:39;100022.31;;;2.07;100.00
7109;BME280;29079;41.930;25.558;2023-01-30T00:31:12;100013.63;;;2.05;100.00
7109;BME280;29079;41.930;25.558;2023-01-30T00:33:46;100007.72;;;2.00;100.00
7109;BME280;29079;41.930;25.558;2023-01-30T00:36:19;100011.13;;;2.02;100.00
7109;BME280;29079;41.930;25.558;2023-01-30T00:38:55;100016.47;;;2.00;100.00
7109;BME280;29079;41.930;25.558;2023-01-30T00:41:30;100008.50;;;2.02;100.00
7109;BME280;29079;41.930;25.558;2023-01-30T00:44:17;100015.63;;;2.00;100.00
7109;BME280;29079;41.930;25.558;2023-01-30T00:47:08;100012.22;;;1.98;100.00
7109;BME280;29079;41.930;25.558;2023-01-30T00:49:41;100013.06;;;1.98;100.00
7109;BME280;29079;41.930;25.558;2023-01-30T00:52:14;100010.34;;;2.00;100.00
7109;BME280;29079;41.930;25.558;2023-01-30T00:54:48;100010.34;;;2.00;100.00
7109;BME280;29079;41.930;25.558;2023-01-30T00:57:24;100005.22;;;1.97;100.00
7109;BME280;29079;41.930;25.558;2023-01-30T00:59:57;99993.72;;;1.99;100.00
7109;BME280;29079;41.930;25.558;2023-01-30T01:02:30;99990.19;;;1.99;100.00
7109;BME280;29079;41.930;25.558;2023-01-30T01:05:04;99991.16;;;1.98;100.00
7109;BME280;29079;41.930;25.558;2023-01-30T01:07:38;99982.31;;;1.99;100.00
7109;BME280;29079;41.930;25.558;2023-01-30T01:10:11;99982.22;;;2.00;100.00
7109;BME280;29079;41.930;25.558;2023-01-30T01:12:51;99987.56;;;1.99;100.00
7109;BME280;29079;41.930;25.558;2023-01-30T01:15:25;99989.34;;;1.98;100.00
7109;BME280;29079;41.930;25.558;2023-01-30T01:17:59;99988.16;;;1.86;100.00
7109;BME280;29079;41.930;25.558;2023-01-30T01:20:32;99994.75;;;1.76;100.00
7109;BME280;29079;41.930;25.558;2023-01-30T01:23:08;99991.53;;;1.69;100.00
7109;BME280;29079;41.930;25.558;2023-01-30T01:25:42;99984.94;;;1.80;100.00
7109;BME280;29079;41.930;25.558;2023-01-30T01:28:17;99987.94;;;1.91;100.00
7109;BME280;29079;41.930;25.558;2023-01-30T01:30:53;99990.50;;;1.92;100.00
7109;BME280;29079;41.930;25.558;2023-01-30T01:33:27;99989.56;;;1.94;100.00
7109;BME280;29079;41.930;25.558;2023-01-30T01:36:00;99992.22;;;1.94;100.00
7109;BME280;29079;41.930;25.558;2023-01-30T01:38:35;99989.66;;;1.92;100.00
7109;BME280;29079;41.930;25.558;2023-01-30T01:41:11;99985.22;;;1.92;100.00
7109;BME280;29079;41.930;25.558;2023-01-30T01:44:03;99981.69;;;1.94;100.00
7109;BME280;29079;41.930;25.558;2023-01-30T01:46:41;99979.19;;;1.90;100.00
7109;BME280;29079;41.930;25.558;2023-01-30T01:49:19;99978.09;;;1.95;100.00
7109;BME280;29079;41.930;25.558;2023-01-30T01:51:58;99974.69;;;1.92;100.00
7109;BME280;29079;41.930;25.558;2023-01-30T01:54:36;99973.06;;;1.90;100.00
7109;BME280;29079;41.930;25.558;2023-01-30T01:57:15;99969.44;;;1.92;100.00
7109;BME280;29079;41.930;25.558;2023-01-30T01:59:55;99967.72;;;1.91;100.00
7109;BME280;29079;41.930;25.558;2023-01-30T02:02:32;99961.03;;;1.84;100.00
7109;BME280;29079;41.930;25.558;2023-01-30T02:05:07;99953.28;;;1.81;100.00
7109;BME280;29079;41.930;25.558;2023-01-30T02:07:45;99941.06;;;1.80;100.00
7109;BME280;29079;41.930;25.558;2023-01-30T02:10:21;99950.38;;;1.87;100.00
7109;BME280;29079;41.930;25.558;2023-01-30T02:12:56;99941.91;;;1.81;100.00
7109;BME280;29079;41.930;25.558;2023-01-30T02:15:32;99944.38;;;1.84;100.00
7109;BME280;29079;41.930;25.558;2023-01-30T02:18:06;99943.25;;;1.89;100.00
7109;BME280;29079;41.930;25.558;2023-01-30T02:20:54;99941.53;;;1.88;100.00
7109;BME280;29079;41.930;25.558;2023-01-30T02:23:52;99939.84;;;1.87;100.00
7109;BME280;29079;41.930;25.558;2023-01-30T02:26:53;99930.25;;;1.86;100.00
7109;BME280;29079;41.930;25.558;2023-01-30T02:32:44;99933.16;;;1.80;100.00
7109;BME280;29079;41.930;25.558;2023-01-30T02:35:24;99934.84;;;1.81;100.00
7109;BME280;29079;41.930;25.558;2023-01-30T02:38:13;99923.34;;;1.84;100.00
7109;BME280;29079;41.930;25.558;2023-01-30T02:40:53;99933.28;;;1.77;100.00
7109;BME280;29079;41.930;25.558;2023-01-30T02:43:33;99928.97;;;1.57;100.00
7109;BME280;29079;41.930;25.558;2023-01-30T02:46:11;99929.22;;;1.70;100.00
7109;BME280;29079;41.930;25.558;2023-01-30T02:48:53;99924.75;;;1.72;100.00
7109;BME280;29079;41.930;25.558;2023-01-30T02:51:29;99925.47;;;1.76;100.00
7109;BME280;29079;41.930;25.558;2023-01-30T02:54:04;99924.03;;;1.68;100.00
7109;BME280;29079;41.930;25.558;2023-01-30T02:56:45;99930.16;;;1.50;100.00
7109;BME280;29079;41.930;25.558;2023-01-30T02:59:23;99933.09;;;1.42;100.00
7109;BME280;29079;41.930;25.558;2023-01-30T03:02:13;99930.91;;;1.52;100.00
7109;BME280;29079;41.930;25.558;2023-01-30T03:05:06;99932.28;;;1.61;100.00
7109;BME280;29079;41.930;25.558;2023-01-30T03:07:49;99935.50;;;1.67;100.00
7109;BME280;29079;41.930;25.558;2023-01-30T03:10:32;99928.31;;;1.71;100.00
7109;BME280;29079;41.930;25.558;2023-01-30T03:13:15;99929.09;;;1.73;100.00
7109;BME280;29079;41.930;25.558;2023-01-30T03:15:56;99925.47;;;1.76;100.00
7109;BME280;29079;41.930;25.558;2023-01-30T03:18:32;99921.28;;;1.71;100.00
7109;BME280;29079;41.930;25.558;2023-01-30T03:21:07;99927.41;;;1.72;100.00
7109;BME280;29079;41.930;25.558;2023-01-30T03:23:43;99931.84;;;1.70;100.00
7109;BME280;29079;41.930;25.558;2023-01-30T03:26:19;99924.31;;;1.62;100.00
7109;BME280;29079;41.930;25.558;2023-01-30T03:28:55;99900.19;;;1.52;100.00
7109;BME280;29079;41.930;25.558;2023-01-30T03:31:28;99917.72;;;1.72;100.00
7109;BME280;29079;41.930;25.558;2023-01-30T03:34:02;99922.06;;;1.73;100.00
7109;BME280;29079;41.930;25.558;2023-01-30T03:36:37;99910.03;;;1.68;100.00
7109;BME280;29079;41.930;25.558;2023-01-30T03:39:10;99919.72;;;1.67;100.00
7109;BME280;29079;41.930;25.558;2023-01-30T03:41:44;99908.97;;;1.72;100.00
7109;BME280;29079;41.930;25.558;2023-01-30T03:44:17;99908.97;;;1.72;100.00
7109;BME280;29079;41.930;25.558;2023-01-30T03:46:50;99901.31;;;1.67;100.00
7109;BME280;29079;41.930;25.558;2023-01-30T03:49:24;99906.63;;;1.66;100.00
7109;BME280;29079;41.930;25.558;2023-01-30T03:51:58;99906.63;;;1.66;100.00
7109;BME280;29079;41.930;25.558;2023-01-30T03:54:32;99910.03;;;1.68;100.00
7109;BME280;29079;41.930;25.558;2023-01-30T03:57:05;99905.53;;;1.70;100.00
7109;BME280;29079;41.930;25.558;2023-01-30T03:59:39;99906.56;;;1.67;100.00
7109;BME280;29079;41.930;25.558;2023-01-30T04:02:12;99908.31;;;1.67;100.00
7109;BME280;29079;41.930;25.558;2023-01-30T04:04:45;99915.94;;;1.73;100.00
7109;BME280;29079;41.930;25.558;2023-01-30T04:07:20;99908.31;;;1.67;100.00
7109;BME280;29079;41.930;25.558;2023-01-30T04:09:55;99916.28;;;1.65;100.00
7109;BME280;29079;41.930;25.558;2023-01-30T04:12:29;99909.44;;;1.61;100.00
7109;BME280;29079;41.930;25.558;2023-01-30T04:15:03;99908.91;;;1.54;100.00
7109;BME280;29079;41.930;25.558;2023-01-30T04:17:37;99905.97;;;1.61;100.00
7109;BME280;29079;41.930;25.558;2023-01-30T04:20:10;99908.47;;;1.64;100.00
7109;BME280;29079;41.930;25.558;2023-01-30T04:22:45;99901.31;;;1.67;100.00
7109;BME280;29079;41.930;25.558;2023-01-30T04:25:19;99909.25;;;1.66;100.00
7109;BME280;29079;41.930;25.558;2023-01-30T04:27:53;99910.94;;;1.67;100.00
7109;BME280;29079;41.930;25.558;2023-01-30T04:30:26;99912.44;;;1.53;100.00
7109;BME280;29079;41.930;25.558;2023-01-30T04:32:59;99913.44;;;1.51;100.00
7109;BME280;29079;41.930;25.558;2023-01-30T04:35:33;99915.63;;;1.41;100.00
7109;BME280;29079;41.930;25.558;2023-01-30T04:38:08;99908.44;;;1.45;100.00
7109;BME280;29079;41.930;25.558;2023-01-30T04:40:47;99909.50;;;1.41;100.00
7109;BME280;29079;41.930;25.558;2023-01-30T04:43:22;99913.72;;;1.45;100.00
7109;BME280;29079;41.930;25.558;2023-01-30T04:45:56;99902.81;;;1.33;100.00
7109;BME280;29079;41.930;25.558;2023-01-30T04:48:29;99910.44;;;1.39;100.00
7109;BME280;29079;41.930;25.558;2023-01-30T04:51:03;99915.13;;;1.33;100.00
7109;BME280;29079;41.930;25.558;2023-01-30T04:53:37;99898.06;;;1.42;100.00
7109;BME280;29079;41.930;25.558;2023-01-30T04:56:11;99909.19;;;1.28;100.00
7109;BME280;29079;41.930;25.558;2023-01-30T04:58:45;99910.00;;;1.30;100.00
7109;BME280;29079;41.930;25.558;2023-01-30T05:01:21;99907.28;;;1.31;100.00
7109;BME280;29079;41.930;25.558;2023-01-30T05:03:55;99906.38;;;1.32;100.00
7109;BME280;29079;41.930;25.558;2023-01-30T05:06:29;99909.34;;;1.25;100.00
7109;BME280;29079;41.930;25.558;2023-01-30T05:09:05;99913.41;;;1.32;100.00
7109;BME280;29079;41.930;25.558;2023-01-30T05:11:39;99923.06;;;1.31;100.00
7109;BME280;29079;41.930;25.558;2023-01-30T05:14:13;99916.97;;;1.31;100.00
7109;BME280;29079;41.930;25.558;2023-01-30T05:16:46;99914.38;;;1.29;100.00
7109;BME280;29079;41.930;25.558;2023-01-30T05:19:20;99924.97;;;1.28;100.00
7109;BME280;29079;41.930;25.558;2023-01-30T05:21:53;99921.50;;;1.27;100.00
7109;BME280;29079;41.930;25.558;2023-01-30T05:24:27;99919.59;;;1.31;100.00
7109;BME280;29079;41.930;25.558;2023-01-30T05:27:01;99918.16;;;1.24;100.00
7109;BME280;29079;41.930;25.558;2023-01-30T05:29:34;99920.66;;;1.27;100.00
7109;BME280;29079;41.930;25.558;2023-01-30T05:32:10;99858.13;;;0.94;100.00
7109;BME280;29079;41.930;25.558;2023-01-30T05:34:44;99922.63;;;1.21;100.00
7109;BME280;29079;41.930;25.558;2023-01-30T05:37:18;99913.00;;;1.20;100.00
7109;BME280;29079;41.930;25.558;2023-01-30T05:39:53;99914.88;;;1.18;100.00
7109;BME280;29079;41.930;25.558;2023-01-30T05:42:26;99913.59;;;1.27;100.00
7109;BME280;29079;41.930;25.558;2023-01-30T05:44:59;99911.66;;;1.32;100.00
7109;BME280;29079;41.930;25.558;2023-01-30T05:47:33;99916.63;;;1.38;100.00
7109;BME280;29079;41.930;25.558;2023-01-30T05:50:08;99914.97;;;1.36;100.00
7109;BME280;29079;41.930;25.558;2023-01-30T05:52:41;99921.16;;;1.35;100.00
7109;BME280;29079;41.930;25.558;2023-01-30T05:55:16;99905.78;;;1.26;100.00
7109;BME280;29079;41.930;25.558;2023-01-30T05:57:50;99916.47;;;1.42;100.00
7109;BME280;29079;41.930;25.558;2023-01-30T06:00:23;99913.91;;;1.40;100.00
7109;BME280;29079;41.930;25.558;2023-01-30T06:02:57;99917.75;;;1.33;100.00
7109;BME280;29079;41.930;25.558;2023-01-30T06:05:30;99911.75;;;1.29;100.00
7109;BME280;29079;41.930;25.558;2023-01-30T06:08:03;99914.44;;;1.28;100.00
7109;BME280;29079;41.930;25.558;2023-01-30T06:10:38;99916.09;;;1.30;100.00
7109;BME280;29079;41.930;25.558;2023-01-30T06:13:12;99915.97;;;1.33;100.00
7109;BME280;29079;41.930;25.558;2023-01-30T06:15:45;99897.63;;;1.32;100.00
7109;BME280;29079;41.930;25.558;2023-01-30T06:18:19;99927.84;;;1.42;100.00
7109;BME280;29079;41.930;25.558;2023-01-30T06:20:52;99923.00;;;1.33;100.00
7109;BME280;29079;41.930;25.558;2023-01-30T06:23:26;99926.69;;;1.29;100.00
7109;BME280;29079;41.930;25.558;2023-01-30T06:26:01;99927.88;;;1.21;100.00
7109;BME280;29079;41.930;25.558;2023-01-30T06:28:39;99927.53;;;1.29;100.00
7109;BME280;29079;41.930;25.558;2023-01-30T06:31:12;99925.09;;;1.25;100.00
7109;BME280;29079;41.930;25.558;2023-01-30T06:33:46;99917.03;;;1.09;100.00
7109;BME280;29079;41.930;25.558;2023-01-30T06:36:20;99929.72;;;1.19;100.00
7109;BME280;29079;41.930;25.558;2023-01-30T06:38:54;99928.25;;;1.33;100.00
7109;BME280;29079;41.930;25.558;2023-01-30T06:41:28;99925.50;;;1.36;100.00
7109;BME280;29079;41.930;25.558;2023-01-30T06:44:02;99936.69;;;1.41;100.00
7109;BME280;29079;41.930;25.558;2023-01-30T06:46:35;99930.91;;;1.33;100.00
7109;BME280;29079;41.930;25.558;2023-01-30T06:49:09;99940.09;;;1.23;100.00
7109;BME280;29079;41.930;25.558;2023-01-30T06:51:43;99944.38;;;1.25;100.00
7109;BME280;29079;41.930;25.558;2023-01-30T06:54:16;99951.16;;;1.31;100.00
7109;BME280;29079;41.930;25.558;2023-01-30T06:56:51;99940.88;;;1.25;100.00
7109;BME280;29079;41.930;25.558;2023-01-30T06:59:25;99944.31;;;1.27;100.00
7109;BME280;29079;41.930;25.558;2023-01-30T07:01:59;99937.06;;;1.32;100.00
7109;BME280;29079;41.930;25.558;2023-01-30T07:04:32;99938.00;;;1.31;100.00
7109;BME280;29079;41.930;25.558;2023-01-30T07:07:05;99938.25;;;1.25;100.00
7109;BME280;29079;41.930;25.558;2023-01-30T07:09:39;99931.66;;;1.35;100.00
7109;BME280;29079;41.930;25.558;2023-01-30T07:12:14;99936.53;;;1.44;100.00
7109;BME280;29079;41.930;25.558;2023-01-30T07:14:48;99932.84;;;1.48;100.00
7109;BME280;29079;41.930;25.558;2023-01-30T07:17:21;99928.56;;;1.46;100.00
7109;BME280;29079;41.930;25.558;2023-01-30T07:19:55;99928.72;;;1.43;100.00
7109;BME280;29079;41.930;25.558;2023-01-30T07:22:28;99923.47;;;1.43;100.00
7109;BME280;29079;41.930;25.558;2023-01-30T07:25:02;99905.59;;;1.30;100.00
7109;BME280;29079;41.930;25.558;2023-01-30T07:27:37;99921.16;;;1.35;100.00
7109;BME280;29079;41.930;25.558;2023-01-30T07:30:12;99924.59;;;1.37;100.00
7109;BME280;29079;41.930;25.558;2023-01-30T07:32:48;99923.78;;;1.35;100.00
7109;BME280;29079;41.930;25.558;2023-01-30T07:35:22;99915.63;;;1.41;100.00
7109;BME280;29079;41.930;25.558;2023-01-30T07:37:56;99925.53;;;1.55;100.00
7109;BME280;29079;41.930;25.558;2023-01-30T07:40:30;99921.53;;;1.65;100.00
7109;BME280;29079;41.930;25.558;2023-01-30T07:43:06;99924.19;;;1.65;100.00
7109;BME280;29079;41.930;25.558;2023-01-30T07:45:41;99923.63;;;1.59;100.00
7109;BME280;29079;41.930;25.558;2023-01-30T07:48:17;99927.09;;;1.59;100.00
7109;BME280;29079;41.930;25.558;2023-01-30T07:50:54;99919.63;;;1.50;100.00
7109;BME280;29079;41.930;25.558;2023-01-30T07:53:28;99917.31;;;1.63;100.00
7109;BME280;29079;41.930;25.558;2023-01-30T07:56:06;99856.22;;;1.37;100.00
7109;BME280;29079;41.930;25.558;2023-01-30T07:58:43;99890.25;;;1.59;100.00
7109;BME280;29079;41.930;25.558;2023-01-30T08:01:17;99915.66;;;1.79;100.00
7109;BME280;29079;41.930;25.558;2023-01-30T08:03:50;99914.84;;;1.77;98.46
7109;BME280;29079;41.930;25.558;2023-01-30T08:06:24;99919.22;;;1.78;98.76
7109;BME280;29079;41.930;25.558;2023-01-30T08:08:57;99918.00;;;1.85;97.59
7109;BME280;29079;41.930;25.558;2023-01-30T08:11:31;99918.00;;;1.85;96.15
7109;BME280;29079;41.930;25.558;2023-01-30T08:14:06;99916.78;;;1.92;96.36
7109;BME280;29079;41.930;25.558;2023-01-30T08:16:39;99918.59;;;1.92;95.01
7109;BME280;29079;41.930;25.558;2023-01-30T08:19:13;99912.78;;;2.03;95.11
7109;BME280;29079;41.930;25.558;2023-01-30T08:21:46;99915.78;;;2.14;95.02
7109;BME280;29079;41.930;25.558;2023-01-30T08:24:20;99910.94;;;2.24;95.27
7109;BME280;29079;41.930;25.558;2023-01-30T08:26:53;99910.84;;;2.25;93.09
7109;BME280;29079;41.930;25.558;2023-01-30T08:29:28;99917.50;;;2.15;92.04
7109;BME280;29079;41.930;25.558;2023-01-30T08:32:01;99921.97;;;2.13;91.31
7109;BME280;29079;41.930;25.558;2023-01-30T08:34:35;99911.44;;;2.13;91.22
7109;BME280;29079;41.930;25.558;2023-01-30T08:37:09;99910.94;;;2.24;91.51
7109;BME280;29079;41.930;25.558;2023-01-30T08:39:42;99905.63;;;2.06;90.23
7109;BME280;29079;41.930;25.558;2023-01-30T08:42:16;99902.63;;;2.14;90.91
7109;BME280;29079;41.930;25.558;2023-01-30T08:44:51;99904.03;;;2.21;90.59
7109;BME280;29079;41.930;25.558;2023-01-30T08:47:24;99897.03;;;2.20;90.68
7109;BME280;29079;41.930;25.558;2023-01-30T08:49:58;99895.47;;;2.16;91.31
7109;BME280;29079;41.930;25.558;2023-01-30T08:52:32;99893.41;;;2.23;90.94
7109;BME280;29079;41.930;25.558;2023-01-30T08:55:06;99898.44;;;2.28;90.79
7109;BME280;29079;41.930;25.558;2023-01-30T08:57:41;99910.50;;;2.14;90.33
7109;BME280;29079;41.930;25.558;2023-01-30T09:00:17;99898.84;;;2.20;88.57
7109;BME280;29079;41.930;25.558;2023-01-30T09:02:52;99892.56;;;2.22;87.54
7109;BME280;29079;41.930;25.558;2023-01-30T09:05:25;99880.78;;;2.12;88.69
7109;BME280;29079;41.930;25.558;2023-01-30T09:07:58;99894.56;;;2.17;89.03
7109;BME280;29079;41.930;25.558;2023-01-30T09:10:32;99887.56;;;2.16;88.42
7109;BME280;29079;41.930;25.558;2023-01-30T09:13:08;99880.81;;;2.30;89.65
7109;BME280;29079;41.930;25.558;2023-01-30T09:15:43;99885.53;;;2.40;88.49
7109;BME280;29079;41.930;25.558;2023-01-30T09:18:17;99880.09;;;2.26;85.40
7109;BME280;29079;41.930;25.558;2023-01-30T09:20:50;99889.47;;;2.32;85.38
7109;BME280;29079;41.930;25.558;2023-01-30T09:23:24;99871.34;;;2.25;85.58
7109;BME280;29079;41.930;25.558;2023-01-30T09:25:58;99866.63;;;2.32;86.24
7109;BME280;29079;41.930;25.558;2023-01-30T09:28:34;99867.50;;;2.33;86.91
7109;BME280;29079;41.930;25.558;2023-01-30T09:31:09;99862.44;;;2.28;87.48
7109;BME280;29079;41.930;25.558;2023-01-30T09:33:42;99838.94;;;2.23;87.56
7109;BME280;29079;41.930;25.558;2023-01-30T09:36:15;99849.81;;;2.35;86.97
7109;BME280;29079;41.930;25.558;2023-01-30T09:38:48;99853.78;;;2.43;87.73
7109;BME280;29079;41.930;25.558;2023-01-30T09:41:34;99844.69;;;2.32;86.34
7109;BME280;29079;41.930;25.558;2023-01-30T09:44:35;99838.38;;;2.53;87.41
7109;BME280;29079;41.930;25.558;2023-01-30T09:47:21;99836.25;;;2.42;86.68
7109;BME280;29079;41.930;25.558;2023-01-30T09:50:03;99830.31;;;2.56;85.97
7109;BME280;29079;41.930;25.558;2023-01-30T09:52:50;99821.41;;;2.59;84.22
7109;BME280;29079;41.930;25.558;2023-01-30T09:55:27;99818.53;;;2.64;84.61
7109;BME280;29079;41.930;25.558;2023-01-30T09:58:01;99817.69;;;2.63;83.83
7109;BME280;29079;41.930;25.558;2023-01-30T10:00:35;99811.78;;;2.58;82.81
7109;BME280;29079;41.930;25.558;2023-01-30T10:03:13;99803.78;;;2.59;83.27
7109;BME280;29079;41.930;25.558;2023-01-30T10:05:50;99798.53;;;2.59;83.06
7109;BME280;29079;41.930;25.558;2023-01-30T10:08:43;99801.69;;;2.66;83.25
7109;BME280;29079;41.930;25.558;2023-01-30T10:11:30;99795.44;;;2.69;83.31
7109;BME280;29079;41.930;25.558;2023-01-30T10:14:29;99779.00;;;2.64;83.05
7109;BME280;29079;41.930;25.558;2023-01-30T10:17:26;99785.47;;;2.74;82.80
7109;BME280;29079;41.930;25.558;2023-01-30T10:20:23;99782.84;;;2.74;83.38
7109;BME280;29079;41.930;25.558;2023-01-30T10:23:27;99780.63;;;2.66;82.49
7109;BME280;29079;41.930;25.558;2023-01-30T10:26:07;99775.44;;;2.65;83.04
7109;BME280;29079;41.930;25.558;2023-01-30T10:28:46;99764.44;;;2.56;82.77
7109;BME280;29079;41.930;25.558;2023-01-30T10:31:42;99758.63;;;2.50;82.34
7109;BME280;29079;41.930;25.558;2023-01-30T10:34:18;99701.94;;;2.25;81.95
7109;BME280;29079;41.930;25.558;2023-01-30T10:36:59;99733.38;;;2.46;82.40
7109;BME280;29079;41.930;25.558;2023-01-30T10:39:36;99720.59;;;2.38;81.94
7109;BME280;29079;41.930;25.558;2023-01-30T10:42:30;99739.78;;;2.57;83.13
7109;BME280;29079;41.930;25.558;2023-01-30T10:45:11;99733.13;;;2.50;81.52
7109;BME280;29079;41.930;25.558;2023-01-30T10:47:55;99719.59;;;2.40;81.74
7109;BME280;29079;41.930;25.558;2023-01-30T10:50:46;99716.50;;;2.66;82.58
7109;BME280;29079;41.930;25.558;2023-01-30T10:53:26;99714.66;;;2.68;82.20
7109;BME280;29079;41.930;25.558;2023-01-30T10:56:05;99658.47;;;2.34;81.10
7109;BME280;29079;41.930;25.558;2023-01-30T10:58:47;99696.97;;;2.70;80.97
7109;BME280;29079;41.930;25.558;2023-01-30T11:01:24;99701.69;;;2.81;81.58
7109;BME280;29079;41.930;25.558;2023-01-30T11:04:13;99681.19;;;2.86;80.76
7109;BME280;29079;41.930;25.558;2023-01-30T11:06:48;99673.88;;;2.91;80.56
7109;BME280;29079;41.930;25.558;2023-01-30T11:09:23;99669.44;;;2.91;80.86
7109;BME280;29079;41.930;25.558;2023-01-30T11:11:56;99660.16;;;2.84;81.14
7109;BME280;29079;41.930;25.558;2023-01-30T11:14:49;99656.78;;;2.98;83.09
7109;BME280;29079;41.930;25.558;2023-01-30T11:17:31;99625.56;;;2.90;81.89
7109;BME280;29079;41.930;25.558;2023-01-30T11:20:10;99647.44;;;2.92;80.50
7109;BME280;29079;41.930;25.558;2023-01-30T11:22:47;99629.47;;;2.99;81.00
7109;BME280;29079;41.930;25.558;2023-01-30T11:25:22;99629.56;;;2.97;80.81
7109;BME280;29079;41.930;25.558;2023-01-30T11:28:00;99627.09;;;2.94;81.20
7109;BME280;29079;41.930;25.558;2023-01-30T11:30:35;99602.44;;;2.79;80.28
7109;BME280;29079;41.930;25.558;2023-01-30T11:33:12;99628.53;;;2.84;79.51
7109;BME280;29079;41.930;25.558;2023-01-30T11:35:52;99632.06;;;2.85;80.36
7109;BME280;29079;41.930;25.558;2023-01-30T11:38:28;99608.31;;;2.69;80.02
7109;BME280;29079;41.930;25.558;2023-01-30T11:41:12;99622.16;;;2.88;79.26
7109;BME280;29079;41.930;25.558;2023-01-30T11:43:49;99623.19;;;2.86;79.67
7109;BME280;29079;41.930;25.558;2023-01-30T11:46:23;99624.97;;;2.85;80.07
7109;BME280;29079;41.930;25.558;2023-01-30T11:48:59;99618.94;;;2.83;79.23
7109;BME280;29079;41.930;25.558;2023-01-30T11:51:53;99611.38;;;2.93;78.72
7109;BME280;29079;41.930;25.558;2023-01-30T11:54:28;99609.66;;;2.92;78.56
7109;BME280;29079;41.930;25.558;2023-01-30T11:57:09;99606.09;;;2.93;78.27
7109;BME280;29079;41.930;25.558;2023-01-30T11:59:45;99606.19;;;2.91;77.61
7109;BME280;29079;41.930;25.558;2023-01-30T12:02:23;99591.06;;;2.79;78.12
7109;BME280;29079;41.930;25.558;2023-01-30T12:04:59;99583.16;;;2.79;77.20
7109;BME280;29079;41.930;25.558;2023-01-30T12:07:35;99566.22;;;2.83;78.30
7109;BME280;29079;41.930;25.558;2023-01-30T12:10:25;99587.47;;;2.96;77.60
7109;BME280;29079;41.930;25.558;2023-01-30T12:13:05;99580.41;;;2.96;78.37
7109;BME280;29079;41.930;25.558;2023-01-30T12:15:47;99579.06;;;2.89;76.86
7109;BME280;29079;41.930;25.558;2023-01-30T12:18:28;99570.56;;;2.84;77.36
7109;BME280;29079;41.930;25.558;2023-01-30T12:21:12;99579.47;;;2.97;78.58
7109;BME280;29079;41.930;25.558;2023-01-30T12:23:51;99566.91;;;2.87;76.34
7109;BME280;29079;41.930;25.558;2023-01-30T12:26:31;99574.38;;;2.94;76.07
7109;BME280;29079;41.930;25.558;2023-01-30T12:29:20;99564.00;;;2.91;76.34
7109;BME280;29079;41.930;25.558;2023-01-30T12:32:03;99570.09;;;2.92;77.15
7109;BME280;29079;41.930;25.558;2023-01-30T12:34:38;99557.03;;;2.90;76.98
7109;BME280;29079;41.930;25.558;2023-01-30T12:37:17;99558.38;;;2.97;76.83
7109;BME280;29079;41.930;25.558;2023-01-30T12:40:00;99553.00;;;2.99;76.29
7109;BME280;29079;41.930;25.558;2023-01-30T12:43:00;99550.06;;;2.89;75.68
7109;BME280;29079;41.930;25.558;2023-01-30T12:45:42;99549.09;;;2.90;75.50
7109;BME280;29079;41.930;25.558;2023-01-30T12:48:44;99538.41;;;2.93;75.98
7109;BME280;29079;41.930;25.558;2023-01-30T12:51:50;99529.81;;;2.90;76.43
7109;BME280;29079;41.930;25.558;2023-01-30T12:54:36;99525.38;;;2.90;75.93
7109;BME280;29079;41.930;25.558;2023-01-30T12:57:19;99524.88;;;3.00;75.21
7109;BME280;29079;41.930;25.558;2023-01-30T13:00:05;99507.13;;;2.87;75.25
7109;BME280;29079;41.930;25.558;2023-01-30T13:02:51;99520.63;;;2.97;75.15
7109;BME280;29079;41.930;25.558;2023-01-30T13:05:36;99519.00;;;2.94;75.30
7109;BME280;29079;41.930;25.558;2023-01-30T13:08:27;99515.03;;;2.87;73.45
7109;BME280;29079;41.930;25.558;2023-01-30T13:11:15;99518.34;;;2.91;74.30
7109;BME280;29079;41.930;25.558;2023-01-30T13:14:00;99501.28;;;2.82;73.43
7109;BME280;29079;41.930;25.558;2023-01-30T13:16:47;99514.19;;;2.87;73.46
7109;BME280;29079;41.930;25.558;2023-01-30T13:19:28;99515.72;;;2.91;72.82
7109;BME280;29079;41.930;25.558;2023-01-30T13:22:16;99504.00;;;2.81;71.63
7109;BME280;29079;41.930;25.558;2023-01-30T13:24:59;99506.38;;;2.85;72.72
7109;BME280;29079;41.930;25.558;2023-01-30T13:27:38;99510.84;;;2.83;71.94
7109;BME280;29079;41.930;25.558;2023-01-30T13:30:15;99507.56;;;2.79;72.41
7109;BME280;29079;41.930;25.558;2023-01-30T13:32:52;99490.66;;;2.68;71.62
7109;BME280;29079;41.930;25.558;2023-01-30T13:35:33;99506.72;;;2.79;71.86
7109;BME280;29079;41.930;25.558;2023-01-30T13:38:14;99509.19;;;2.82;72.98
7109;BME280;29079;41.930;25.558;2023-01-30T13:40:50;99500.00;;;2.73;73.08
7109;BME280;29079;41.930;25.558;2023-01-30T13:43:28;99502.91;;;2.69;72.45
7109;BME280;29079;41.930;25.558;2023-01-30T13:46:07;99497.56;;;2.70;73.20
7109;BME280;29079;41.930;25.558;2023-01-30T13:48:52;99495.00;;;2.69;73.70
7109;BME280;29079;41.930;25.558;2023-01-30T13:51:47;99489.66;;;2.70;74.09
7109;BME280;29079;41.930;25.558;2023-01-30T13:54:34;99490.41;;;2.72;72.78
7109;BME280;29079;41.930;25.558;2023-01-30T13:57:19;99478.16;;;2.71;73.27
7109;BME280;29079;41.930;25.558;2023-01-30T14:00:17;99478.41;;;2.67;73.32
7109;BME280;29079;41.930;25.558;2023-01-30T14:03:14;99475.69;;;2.68;73.60